sensor_id;sensor_type;location;lat;lon;timestamp;pressure;altitude;pressure_sealevel;temperature;humidity
49122;BME280;35529;44.342;25.944;2023-07-20T00:02:21;99925.13;;;27.74;100.00
49122;BME280;35529;44.342;25.944;2023-07-20T00:04:47;99948.50;;;27.84;100.00
49122;BME280;35529;44.342;25.944;2023-07-20T00:07:13;99951.72;;;27.86;100.00
49122;BME280;35529;44.342;25.944;2023-07-20T00:09:39;99939.97;;;28.03;100.00
49122;BME280;35529;44.342;25.944;2023-07-20T00:12:05;99931.06;;;28.24;100.00
49122;BME280;35529;44.342;25.944;2023-07-20T00:14:31;99943.97;;;28.36;100.00
49122;BME280;35529;44.342;25.944;2023-07-20T00:16:58;99950.63;;;28.26;100.00
49122;BME280;35529;44.342;25.944;2023-07-20T00:19:27;99965.50;;;27.99;100.00
49122;BME280;35529;44.342;25.944;2023-07-20T00:21:53;99981.25;;;27.84;100.00
49122;BME280;35529;44.342;25.944;2023-07-20T00:24:20;99973.72;;;27.81;100.00
49122;BME280;35529;44.342;25.944;2023-07-20T00:26:46;99961.50;;;27.87;100.00
49122;BME280;35529;44.342;25.944;2023-07-20T00:29:12;99960.34;;;27.97;100.00
49122;BME280;35529;44.342;25.944;2023-07-20T00:31:38;99959.06;;;28.03;100.00
49122;BME280;35529;44.342;25.944;2023-07-20T00:34:04;99956.47;;;27.98;100.00
49122;BME280;35529;44.342;25.944;2023-07-20T00:36:31;99955.06;;;28.01;100.00
49122;BME280;35529;44.342;25.944;2023-07-20T00:38:57;99963.91;;;27.89;100.00
49122;BME280;35529;44.342;25.944;2023-07-20T00:41:23;99979.03;;;27.77;100.00
49122;BME280;35529;44.342;25.944;2023-07-20T00:43:49;99963.19;;;27.53;100.00
49122;BME280;35529;44.342;25.944;2023-07-20T00:46:16;99992.88;;;27.46;100.00
49122;BME280;35529;44.342;25.944;2023-07-20T00:48:42;99973.13;;;27.67;100.00
49122;BME280;35529;44.342;25.944;2023-07-20T00:51:08;99965.72;;;27.67;100.00
49122;BME280;35529;44.342;25.944;2023-07-20T00:53:35;99979.09;;;27.42;100.00
49122;BME280;35529;44.342;25.944;2023-07-20T00:56:01;99977.16;;;27.34;100.00
49122;BME280;35529;44.342;25.944;2023-07-20T00:58:27;99976.66;;;27.15;100.00
49122;BME280;35529;44.342;25.944;2023-07-20T01:00:53;99982.75;;;26.94;100.00
49122;BME280;35529;44.342;25.944;2023-07-20T01:03:20;99967.94;;;26.69;100.00
49122;BME280;35529;44.342;25.944;2023-07-20T01:08:23;99959.50;;;26.30;100.00
49122;BME280;35529;44.342;25.944;2023-07-20T01:11:01;99951.63;;;26.20;100.00
49122;BME280;35529;44.342;25.944;2023-07-20T01:13:32;99944.72;;;26.14;100.00
49122;BME280;35529;44.342;25.944;2023-07-20T01:16:01;99938.94;;;26.06;100.00
49122;BME280;35529;44.342;25.944;2023-07-20T01:18:28;99930.28;;;26.04;100.00
49122;BME280;35529;44.342;25.944;2023-07-20T01:20:56;99942.47;;;26.07;100.00
49122;BME280;35529;44.342;25.944;2023-07-20T01:23:33;99940.03;;;26.05;100.00
49122;BME280;35529;44.342;25.944;2023-07-20T01:31:18;99946.41;;;26.01;100.00
49122;BME280;35529;44.342;25.944;2023-07-20T01:33:46;99931.63;;;25.93;100.00
49122;BME280;35529;44.342;25.944;2023-07-20T01:36:13;99926.97;;;25.85;100.00
49122;BME280;35529;44.342;25.944;2023-07-20T01:38:39;99939.94;;;25.88;100.00
49122;BME280;35529;44.342;25.944;2023-07-20T01:41:06;99930.00;;;25.83;100.00
49122;BME280;35529;44.342;25.944;2023-07-20T01:43:32;99920.22;;;25.82;100.00
49122;BME280;35529;44.342;25.944;2023-07-20T01:45:58;99924.88;;;25.82;100.00
49122;BME280;35529;44.342;25.944;2023-07-20T01:48:24;99910.47;;;25.81;100.00
49122;BME280;35529;44.342;25.944;2023-07-20T01:50:50;99895.53;;;25.70;100.00
49122;BME280;35529;44.342;25.944;2023-07-20T01:53:17;99897.47;;;25.69;100.00
49122;BME280;35529;44.342;25.944;2023-07-20T01:55:43;99876.84;;;25.68;100.00
49122;BME280;35529;44.342;25.944;2023-07-20T01:58:09;99867.19;;;25.62;100.00
49122;BME280;35529;44.342;25.944;2023-07-20T02:00:39;99873.22;;;25.82;100.00
49122;BME280;35529;44.342;25.944;2023-07-20T02:03:05;99866.28;;;26.07;100.00
49122;BME280;35529;44.342;25.944;2023-07-20T02:05:32;99859.31;;;25.92;100.00
49122;BME280;35529;44.342;25.944;2023-07-20T02:07:58;99880.66;;;25.67;100.00
49122;BME280;35529;44.342;25.944;2023-07-20T02:10:24;99883.84;;;25.38;100.00
49122;BME280;35529;44.342;25.944;2023-07-20T02:12:50;99878.59;;;25.19;100.00
49122;BME280;35529;44.342;25.944;2023-07-20T02:15:16;99876.13;;;25.08;100.00
49122;BME280;35529;44.342;25.944;2023-07-20T02:17:45;99872.50;;;25.13;100.00
49122;BME280;35529;44.342;25.944;2023-07-20T02:20:11;99875.38;;;25.17;100.00
49122;BME280;35529;44.342;25.944;2023-07-20T02:22:37;99883.22;;;25.18;100.00
49122;BME280;35529;44.342;25.944;2023-07-20T02:25:04;99880.13;;;25.11;100.00
49122;BME280;35529;44.342;25.944;2023-07-20T02:27:30;99881.66;;;25.03;100.00
49122;BME280;35529;44.342;25.944;2023-07-20T02:29:57;99877.50;;;24.97;100.00
49122;BME280;35529;44.342;25.944;2023-07-20T02:32:23;99880.81;;;24.94;100.00
49122;BME280;35529;44.342;25.944;2023-07-20T02:34:49;99877.41;;;24.88;100.00
49122;BME280;35529;44.342;25.944;2023-07-20T02:37:16;99882.97;;;24.83;100.00
49122;BME280;35529;44.342;25.944;2023-07-20T02:39:42;99875.00;;;24.87;100.00
49122;BME280;35529;44.342;25.944;2023-07-20T02:42:08;99886.97;;;24.86;100.00
49122;BME280;35529;44.342;25.944;2023-07-20T02:44:34;99881.06;;;24.84;100.00
49122;BME280;35529;44.342;25.944;2023-07-20T02:47:00;99873.41;;;24.86;100.00
49122;BME280;35529;44.342;25.944;2023-07-20T02:49:26;99895.75;;;24.83;100.00
49122;BME280;35529;44.342;25.944;2023-07-20T02:51:53;99908.00;;;24.80;100.00
49122;BME280;35529;44.342;25.944;2023-07-20T02:54:19;99944.03;;;24.72;100.00
49122;BME280;35529;44.342;25.944;2023-07-20T02:56:45;99919.00;;;24.61;100.00
49122;BME280;35529;44.342;25.944;2023-07-20T02:59:11;99948.44;;;24.54;100.00
49122;BME280;35529;44.342;25.944;2023-07-20T03:01:37;99937.31;;;24.41;100.00
49122;BME280;35529;44.342;25.944;2023-07-20T03:04:03;99939.72;;;24.43;100.00
49122;BME280;35529;44.342;25.944;2023-07-20T03:06:29;99933.59;;;24.37;100.00
49122;BME280;35529;44.342;25.944;2023-07-20T03:08:56;99928.94;;;24.38;100.00
49122;BME280;35529;44.342;25.944;2023-07-20T03:11:23;99935.28;;;24.33;100.00
49122;BME280;35529;44.342;25.944;2023-07-20T03:13:49;99937.81;;;24.30;100.00
49122;BME280;35529;44.342;25.944;2023-07-20T03:16:17;99939.22;;;24.27;100.00
49122;BME280;35529;44.342;25.944;2023-07-20T03:18:43;99941.75;;;24.23;100.00
49122;BME280;35529;44.342;25.944;2023-07-20T03:21:10;99951.47;;;24.24;100.00
49122;BME280;35529;44.342;25.944;2023-07-20T03:23:39;99953.91;;;24.26;100.00
49122;BME280;35529;44.342;25.944;2023-07-20T03:26:06;99955.22;;;24.29;100.00
49122;BME280;35529;44.342;25.944;2023-07-20T03:28:34;99963.53;;;24.32;100.00
49122;BME280;35529;44.342;25.944;2023-07-20T03:31:00;99950.97;;;24.36;100.00
49122;BME280;35529;44.342;25.944;2023-07-20T03:33:27;99951.38;;;24.43;100.00
49122;BME280;35529;44.342;25.944;2023-07-20T03:35:53;99953.69;;;24.50;100.00
49122;BME280;35529;44.342;25.944;2023-07-20T03:38:20;99963.94;;;24.53;100.00
49122;BME280;35529;44.342;25.944;2023-07-20T03:41:00;99978.72;;;24.61;100.00
49122;BME280;35529;44.342;25.944;2023-07-20T03:43:27;99971.09;;;24.63;100.00
49122;BME280;35529;44.342;25.944;2023-07-20T03:45:53;99959.44;;;24.63;100.00
49122;BME280;35529;44.342;25.944;2023-07-20T03:48:20;99965.84;;;24.67;100.00
49122;BME280;35529;44.342;25.944;2023-07-20T03:50:48;99949.56;;;24.67;100.00
49122;BME280;35529;44.342;25.944;2023-07-20T03:53:15;99957.41;;;24.68;100.00
49122;BME280;35529;44.342;25.944;2023-07-20T03:55:41;99957.19;;;24.79;100.00
49122;BME280;35529;44.342;25.944;2023-07-20T03:58:10;99953.66;;;24.92;100.00
49122;BME280;35529;44.342;25.944;2023-07-20T04:00:36;99955.28;;;25.16;100.00
49122;BME280;35529;44.342;25.944;2023-07-20T04:03:02;99962.47;;;25.34;100.00
49122;BME280;35529;44.342;25.944;2023-07-20T04:05:28;99954.31;;;25.34;100.00
49122;BME280;35529;44.342;25.944;2023-07-20T04:07:55;99955.13;;;25.35;100.00
49122;BME280;35529;44.342;25.944;2023-07-20T04:10:21;99940.00;;;25.42;100.00
49122;BME280;35529;44.342;25.944;2023-07-20T04:12:47;99945.81;;;25.50;100.00
49122;BME280;35529;44.342;25.944;2023-07-20T04:15:13;99947.41;;;25.51;100.00
49122;BME280;35529;44.342;25.944;2023-07-20T04:17:40;99966.13;;;25.52;100.00
49122;BME280;35529;44.342;25.944;2023-07-20T04:20:07;99964.31;;;25.48;100.00
49122;BME280;35529;44.342;25.944;2023-07-20T04:22:33;99958.22;;;25.65;100.00
49122;BME280;35529;44.342;25.944;2023-07-20T04:24:59;99970.72;;;25.74;100.00
49122;BME280;35529;44.342;25.944;2023-07-20T04:27:25;99952.06;;;25.82;100.00
49122;BME280;35529;44.342;25.944;2023-07-20T04:29:52;99960.53;;;26.03;100.00
49122;BME280;35529;44.342;25.944;2023-07-20T04:32:18;99961.09;;;26.00;100.00
49122;BME280;35529;44.342;25.944;2023-07-20T04:34:44;99956.56;;;25.86;100.00
49122;BME280;35529;44.342;25.944;2023-07-20T04:37:10;99960.75;;;25.92;100.00
49122;BME280;35529;44.342;25.944;2023-07-20T04:39:36;99930.75;;;26.06;100.00
49122;BME280;35529;44.342;25.944;2023-07-20T04:42:02;99942.03;;;26.22;100.00
49122;BME280;35529;44.342;25.944;2023-07-20T04:44:28;99927.81;;;26.34;100.00
49122;BME280;35529;44.342;25.944;2023-07-20T04:46:55;99952.13;;;26.31;100.00
49122;BME280;35529;44.342;25.944;2023-07-20T04:49:23;99943.03;;;26.35;100.00
49122;BME280;35529;44.342;25.944;2023-07-20T04:51:49;99940.19;;;26.49;100.00
49122;BME280;35529;44.342;25.944;2023-07-20T04:54:15;99953.66;;;26.46;100.00
49122;BME280;35529;44.342;25.944;2023-07-20T04:56:42;99951.06;;;26.40;100.00
49122;BME280;35529;44.342;25.944;2023-07-20T04:59:09;99952.69;;;26.50;100.00
49122;BME280;35529;44.342;25.944;2023-07-20T05:01:35;99963.44;;;26.55;100.00
49122;BME280;35529;44.342;25.944;2023-07-20T05:04:01;99970.31;;;26.53;100.00
49122;BME280;35529;44.342;25.944;2023-07-20T05:06:28;99985.38;;;26.59;100.00
49122;BME280;35529;44.342;25.944;2023-07-20T05:08:54;99970.63;;;26.60;100.00
49122;BME280;35529;44.342;25.944;2023-07-20T05:11:20;99967.75;;;26.56;100.00
49122;BME280;35529;44.342;25.944;2023-07-20T05:13:46;99963.94;;;26.66;100.00
49122;BME280;35529;44.342;25.944;2023-07-20T05:16:12;99968.16;;;26.90;100.00
49122;BME280;35529;44.342;25.944;2023-07-20T05:18:38;99956.00;;;27.05;100.00
49122;BME280;35529;44.342;25.944;2023-07-20T05:21:05;99954.69;;;27.11;100.00
49122;BME280;35529;44.342;25.944;2023-07-20T05:23:31;99975.84;;;27.23;100.00
49122;BME280;35529;44.342;25.944;2023-07-20T05:25:58;99997.03;;;27.35;100.00
49122;BME280;35529;44.342;25.944;2023-07-20T05:28:24;99966.75;;;27.45;100.00
49122;BME280;35529;44.342;25.944;2023-07-20T05:30:51;99968.81;;;27.57;100.00
49122;BME280;35529;44.342;25.944;2023-07-20T05:33:18;99959.84;;;27.48;100.00
49122;BME280;35529;44.342;25.944;2023-07-20T05:35:44;99961.44;;;27.22;100.00
49122;BME280;35529;44.342;25.944;2023-07-20T05:38:10;99954.22;;;27.00;100.00
49122;BME280;35529;44.342;25.944;2023-07-20T05:40:43;99955.00;;;26.74;100.00
49122;BME280;35529;44.342;25.944;2023-07-20T05:43:10;99944.91;;;26.75;100.00
49122;BME280;35529;44.342;25.944;2023-07-20T05:45:36;99946.03;;;26.83;100.00
49122;BME280;35529;44.342;25.944;2023-07-20T05:48:02;99946.50;;;26.76;100.00
49122;BME280;35529;44.342;25.944;2023-07-20T05:50:28;99955.13;;;26.69;100.00
49122;BME280;35529;44.342;25.944;2023-07-20T05:52:54;99956.78;;;26.79;100.00
49122;BME280;35529;44.342;25.944;2023-07-20T05:55:21;99961.59;;;26.82;100.00
49122;BME280;35529;44.342;25.944;2023-07-20T05:57:49;99967.66;;;26.88;100.00
49122;BME280;35529;44.342;25.944;2023-07-20T06:00:15;99951.19;;;26.93;100.00
49122;BME280;35529;44.342;25.944;2023-07-20T06:02:41;99954.84;;;26.88;100.00
49122;BME280;35529;44.342;25.944;2023-07-20T06:05:08;99951.66;;;27.04;100.00
49122;BME280;35529;44.342;25.944;2023-07-20T06:07:40;99955.81;;;27.36;100.00
49122;BME280;35529;44.342;25.944;2023-07-20T06:10:06;99962.88;;;27.64;100.00
49122;BME280;35529;44.342;25.944;2023-07-20T06:12:33;99953.16;;;28.01;100.00
49122;BME280;35529;44.342;25.944;2023-07-20T06:15:03;99955.63;;;28.24;100.00
49122;BME280;35529;44.342;25.944;2023-07-20T06:17:29;99948.63;;;28.44;100.00
49122;BME280;35529;44.342;25.944;2023-07-20T06:19:56;99939.50;;;28.61;100.00
49122;BME280;35529;44.342;25.944;2023-07-20T06:22:22;99944.94;;;28.61;100.00
49122;BME280;35529;44.342;25.944;2023-07-20T06:24:48;99947.88;;;28.56;100.00
49122;BME280;35529;44.342;25.944;2023-07-20T06:27:14;99950.94;;;28.54;100.00
49122;BME280;35529;44.342;25.944;2023-07-20T06:29:40;99949.03;;;28.55;100.00
49122;BME280;35529;44.342;25.944;2023-07-20T06:32:06;99951.97;;;28.41;100.00
49122;BME280;35529;44.342;25.944;2023-07-20T06:34:33;99959.16;;;28.24;100.00
49122;BME280;35529;44.342;25.944;2023-07-20T06:37:03;99959.66;;;28.18;100.00
49122;BME280;35529;44.342;25.944;2023-07-20T06:39:29;99970.84;;;28.25;100.00
49122;BME280;35529;44.342;25.944;2023-07-20T06:41:55;99977.91;;;28.26;100.00
49122;BME280;35529;44.342;25.944;2023-07-20T06:44:21;99969.56;;;28.22;100.00
49122;BME280;35529;44.342;25.944;2023-07-20T06:46:48;99964.50;;;28.42;100.00
49122;BME280;35529;44.342;25.944;2023-07-20T06:49:24;99978.75;;;28.56;100.00
49122;BME280;35529;44.342;25.944;2023-07-20T06:51:50;99987.44;;;28.50;100.00
49122;BME280;35529;44.342;25.944;2023-07-20T06:54:16;99980.53;;;28.52;100.00
49122;BME280;35529;44.342;25.944;2023-07-20T06:56:42;99979.53;;;28.57;100.00
49122;BME280;35529;44.342;25.944;2023-07-20T06:59:08;99973.72;;;28.58;100.00
49122;BME280;35529;44.342;25.944;2023-07-20T07:01:34;99974.25;;;28.52;100.00
49122;BME280;35529;44.342;25.944;2023-07-20T07:04:01;99985.91;;;28.40;100.00
49122;BME280;35529;44.342;25.944;2023-07-20T07:06:27;99989.16;;;28.24;100.00
49122;BME280;35529;44.342;25.944;2023-07-20T07:08:53;99988.56;;;28.19;100.00
49122;BME280;35529;44.342;25.944;2023-07-20T07:11:20;99995.25;;;28.30;100.00
49122;BME280;35529;44.342;25.944;2023-07-20T07:13:47;99991.47;;;28.43;100.00
49122;BME280;35529;44.342;25.944;2023-07-20T07:16:15;99984.66;;;28.58;100.00
49122;BME280;35529;44.342;25.944;2023-07-20T07:18:47;100000.84;;;28.72;100.00
49122;BME280;35529;44.342;25.944;2023-07-20T07:21:13;99991.25;;;28.87;100.00
49122;BME280;35529;44.342;25.944;2023-07-20T07:23:39;99997.28;;;29.02;100.00
49122;BME280;35529;44.342;25.944;2023-07-20T07:26:05;99994.06;;;29.21;100.00
49122;BME280;35529;44.342;25.944;2023-07-20T07:28:31;99983.78;;;29.39;100.00
49122;BME280;35529;44.342;25.944;2023-07-20T07:30:58;99985.97;;;29.46;100.00
49122;BME280;35529;44.342;25.944;2023-07-20T07:33:24;99986.59;;;29.51;100.00
49122;BME280;35529;44.342;25.944;2023-07-20T07:35:50;99999.25;;;29.56;100.00
49122;BME280;35529;44.342;25.944;2023-07-20T07:38:18;99986.63;;;29.64;100.00
49122;BME280;35529;44.342;25.944;2023-07-20T07:40:45;99992.25;;;29.80;100.00
49122;BME280;35529;44.342;25.944;2023-07-20T07:43:12;99994.63;;;30.02;100.00
49122;BME280;35529;44.342;25.944;2023-07-20T07:45:39;99990.19;;;30.10;100.00
49122;BME280;35529;44.342;25.944;2023-07-20T07:48:06;99987.53;;;30.26;100.00
49122;BME280;35529;44.342;25.944;2023-07-20T07:50:33;99988.00;;;30.40;100.00
49122;BME280;35529;44.342;25.944;2023-07-20T07:52:59;99992.00;;;30.55;100.00
49122;BME280;35529;44.342;25.944;2023-07-20T07:55:25;99989.59;;;30.66;100.00
49122;BME280;35529;44.342;25.944;2023-07-20T07:57:54;99998.50;;;30.75;100.00
49122;BME280;35529;44.342;25.944;2023-07-20T08:00:21;99987.66;;;30.79;100.00
49122;BME280;35529;44.342;25.944;2023-07-20T08:02:47;99979.41;;;30.91;100.00
49122;BME280;35529;44.342;25.944;2023-07-20T08:05:19;99980.66;;;30.94;100.00
49122;BME280;35529;44.342;25.944;2023-07-20T08:07:48;99973.94;;;31.04;100.00
49122;BME280;35529;44.342;25.944;2023-07-20T08:10:17;99987.94;;;31.15;100.00
49122;BME280;35529;44.342;25.944;2023-07-20T08:12:43;99966.19;;;31.22;100.00
49122;BME280;35529;44.342;25.944;2023-07-20T08:15:11;99969.59;;;31.31;100.00
49122;BME280;35529;44.342;25.944;2023-07-20T08:17:41;99962.16;;;31.32;100.00
49122;BME280;35529;44.342;25.944;2023-07-20T08:20:08;99967.97;;;31.30;100.00
49122;BME280;35529;44.342;25.944;2023-07-20T08:22:37;99968.28;;;31.41;100.00
49122;BME280;35529;44.342;25.944;2023-07-20T08:25:05;99974.16;;;31.55;100.00
49122;BME280;35529;44.342;25.944;2023-07-20T08:27:31;99968.25;;;31.69;100.00
49122;BME280;35529;44.342;25.944;2023-07-20T08:29:57;99976.19;;;31.87;100.00
49122;BME280;35529;44.342;25.944;2023-07-20T08:32:23;99981.50;;;31.96;100.00
49122;BME280;35529;44.342;25.944;2023-07-20T08:34:49;99975.72;;;31.85;100.00
49122;BME280;35529;44.342;25.944;2023-07-20T08:37:15;99964.03;;;31.88;100.00
49122;BME280;35529;44.342;25.944;2023-07-20T08:39:41;99972.00;;;31.93;98.96
49122;BME280;35529;44.342;25.944;2023-07-20T08:42:09;99972.88;;;31.97;99.49
49122;BME280;35529;44.342;25.944;2023-07-20T08:44:36;99962.63;;;31.94;99.37
49122;BME280;35529;44.342;25.944;2023-07-20T08:47:04;99956.16;;;32.02;99.29
49122;BME280;35529;44.342;25.944;2023-07-20T08:49:31;99963.88;;;32.13;98.86
49122;BME280;35529;44.342;25.944;2023-07-20T08:52:00;99957.06;;;32.22;99.96
49122;BME280;35529;44.342;25.944;2023-07-20T08:54:28;99956.88;;;32.31;99.21
49122;BME280;35529;44.342;25.944;2023-07-20T08:56:56;99942.84;;;32.36;100.00
49122;BME280;35529;44.342;25.944;2023-07-20T08:59:22;99946.38;;;32.53;99.31
49122;BME280;35529;44.342;25.944;2023-07-20T09:01:49;99942.97;;;32.59;98.36
49122;BME280;35529;44.342;25.944;2023-07-20T09:04:15;99934.78;;;32.63;97.26
49122;BME280;35529;44.342;25.944;2023-07-20T09:06:41;99939.34;;;32.71;98.36
49122;BME280;35529;44.342;25.944;2023-07-20T09:09:08;99937.22;;;32.84;96.79
49122;BME280;35529;44.342;25.944;2023-07-20T09:11:34;99949.09;;;32.88;95.90
49122;BME280;35529;44.342;25.944;2023-07-20T09:14:03;99939.78;;;32.93;95.55
49122;BME280;35529;44.342;25.944;2023-07-20T09:16:29;99969.59;;;32.91;94.46
49122;BME280;35529;44.342;25.944;2023-07-20T09:18:57;99947.09;;;32.69;96.61
49122;BME280;35529;44.342;25.944;2023-07-20T09:21:23;99949.84;;;32.85;96.03
49122;BME280;35529;44.342;25.944;2023-07-20T09:23:49;99935.94;;;32.98;96.24
49122;BME280;35529;44.342;25.944;2023-07-20T09:26:21;99929.00;;;33.04;95.40
49122;BME280;35529;44.342;25.944;2023-07-20T09:28:49;99936.34;;;33.19;95.55
49122;BME280;35529;44.342;25.944;2023-07-20T09:31:19;99929.44;;;33.25;93.18
49122;BME280;35529;44.342;25.944;2023-07-20T09:33:46;99932.25;;;33.29;92.50
49122;BME280;35529;44.342;25.944;2023-07-20T09:36:12;99936.06;;;33.24;95.36
49122;BME280;35529;44.342;25.944;2023-07-20T09:38:41;99917.31;;;33.30;96.40
49122;BME280;35529;44.342;25.944;2023-07-20T09:41:14;99922.38;;;33.48;95.58
49122;BME280;35529;44.342;25.944;2023-07-20T09:43:44;99924.50;;;33.58;92.61
49122;BME280;35529;44.342;25.944;2023-07-20T09:46:11;99928.56;;;33.64;93.02
49122;BME280;35529;44.342;25.944;2023-07-20T09:48:37;99919.13;;;33.65;92.02
49122;BME280;35529;44.342;25.944;2023-07-20T09:51:03;99914.47;;;33.69;93.86
49122;BME280;35529;44.342;25.944;2023-07-20T09:53:30;99915.84;;;33.79;89.63
49122;BME280;35529;44.342;25.944;2023-07-20T09:56:00;99907.66;;;33.83;87.80
49122;BME280;35529;44.342;25.944;2023-07-20T09:58:27;99904.09;;;33.82;87.44
49122;BME280;35529;44.342;25.944;2023-07-20T10:00:56;99894.78;;;33.90;89.27
49122;BME280;35529;44.342;25.944;2023-07-20T10:03:25;99893.41;;;34.04;88.28
49122;BME280;35529;44.342;25.944;2023-07-20T10:05:56;99878.38;;;33.98;86.37
49122;BME280;35529;44.342;25.944;2023-07-20T10:08:24;99870.94;;;34.02;86.26
49122;BME280;35529;44.342;25.944;2023-07-20T10:10:50;99881.81;;;34.18;84.64
49122;BME280;35529;44.342;25.944;2023-07-20T10:13:17;99867.72;;;34.23;82.50
49122;BME280;35529;44.342;25.944;2023-07-20T10:15:46;99859.44;;;34.23;82.01
49122;BME280;35529;44.342;25.944;2023-07-20T10:18:14;99863.41;;;34.25;84.08
49122;BME280;35529;44.342;25.944;2023-07-20T10:20:43;99855.72;;;34.38;82.96
49122;BME280;35529;44.342;25.944;2023-07-20T10:23:10;99851.16;;;34.50;80.72
49122;BME280;35529;44.342;25.944;2023-07-20T10:25:38;99840.13;;;34.50;81.77
49122;BME280;35529;44.342;25.944;2023-07-20T10:28:07;99841.09;;;34.65;83.78
49122;BME280;35529;44.342;25.944;2023-07-20T10:30:36;99842.59;;;34.58;83.06
49122;BME280;35529;44.342;25.944;2023-07-20T10:33:03;99833.94;;;34.60;82.77
49122;BME280;35529;44.342;25.944;2023-07-20T10:35:30;99839.63;;;34.74;82.21
49122;BME280;35529;44.342;25.944;2023-07-20T10:38:00;99835.88;;;34.90;82.58
49122;BME280;35529;44.342;25.944;2023-07-20T10:40:30;99833.50;;;34.88;81.30
49122;BME280;35529;44.342;25.944;2023-07-20T10:43:00;99825.25;;;34.92;81.31
49122;BME280;35529;44.342;25.944;2023-07-20T10:45:48;99819.41;;;34.97;79.89
49122;BME280;35529;44.342;25.944;2023-07-20T10:48:18;99821.00;;;34.98;79.80
49122;BME280;35529;44.342;25.944;2023-07-20T10:50:45;99817.50;;;35.05;79.12
49122;BME280;35529;44.342;25.944;2023-07-20T10:55:39;99805.34;;;35.13;77.33
49122;BME280;35529;44.342;25.944;2023-07-20T10:58:09;99802.25;;;35.18;77.40
49122;BME280;35529;44.342;25.944;2023-07-20T11:03:29;99808.06;;;35.51;76.96
49122;BME280;35529;44.342;25.944;2023-07-20T11:05:56;99810.00;;;35.47;73.89
49122;BME280;35529;44.342;25.944;2023-07-20T11:08:46;99806.47;;;35.50;73.29
49122;BME280;35529;44.342;25.944;2023-07-20T11:11:24;99804.09;;;35.45;74.96
49122;BME280;35529;44.342;25.944;2023-07-20T11:13:54;99796.16;;;35.39;73.37
49122;BME280;35529;44.342;25.944;2023-07-20T11:16:31;99805.72;;;35.56;73.84
49122;BME280;35529;44.342;25.944;2023-07-20T11:18:58;99804.31;;;35.81;72.64
49122;BME280;35529;44.342;25.944;2023-07-20T11:21:25;99795.75;;;35.97;71.54
49122;BME280;35529;44.342;25.944;2023-07-20T11:23:54;99802.91;;;36.08;69.14
49122;BME280;35529;44.342;25.944;2023-07-20T11:26:20;99796.59;;;36.08;67.07
49122;BME280;35529;44.342;25.944;2023-07-20T11:28:50;99800.91;;;35.98;69.61
49122;BME280;35529;44.342;25.944;2023-07-20T11:31:18;99793.53;;;36.24;72.12
49122;BME280;35529;44.342;25.944;2023-07-20T11:33:44;99802.28;;;36.40;70.96
49122;BME280;35529;44.342;25.944;2023-07-20T11:36:10;99785.72;;;36.48;70.92
49122;BME280;35529;44.342;25.944;2023-07-20T11:38:36;99778.25;;;36.55;69.30
49122;BME280;35529;44.342;25.944;2023-07-20T11:41:03;99781.81;;;36.70;70.11
49122;BME280;35529;44.342;25.944;2023-07-20T11:43:30;99783.81;;;36.81;70.75
49122;BME280;35529;44.342;25.944;2023-07-20T11:45:56;99779.16;;;36.92;68.04
49122;BME280;35529;44.342;25.944;2023-07-20T11:48:22;99770.44;;;37.26;67.81
49122;BME280;35529;44.342;25.944;2023-07-20T11:50:51;99770.84;;;37.50;62.88
49122;BME280;35529;44.342;25.944;2023-07-20T11:53:17;99771.59;;;37.57;59.39
49122;BME280;35529;44.342;25.944;2023-07-20T11:55:48;99772.38;;;37.65;61.09
49122;BME280;35529;44.342;25.944;2023-07-20T11:58:14;99764.03;;;37.76;60.91
49122;BME280;35529;44.342;25.944;2023-07-20T12:27:36;99740.59;;;38.10;57.96
49122;BME280;35529;44.342;25.944;2023-07-20T12:30:05;99730.63;;;38.23;54.14
49122;BME280;35529;44.342;25.944;2023-07-20T12:32:31;99736.72;;;38.67;52.97
49122;BME280;35529;44.342;25.944;2023-07-20T12:34:57;99730.84;;;39.14;53.30
49122;BME280;35529;44.342;25.944;2023-07-20T12:37:23;99729.69;;;39.53;50.72
49122;BME280;35529;44.342;25.944;2023-07-20T12:39:49;99734.50;;;39.45;48.37
49122;BME280;35529;44.342;25.944;2023-07-20T12:42:15;99734.41;;;39.18;47.86
49122;BME280;35529;44.342;25.944;2023-07-20T12:44:42;99747.19;;;39.04;51.69
49122;BME280;35529;44.342;25.944;2023-07-20T12:47:08;99752.56;;;38.77;52.51
49122;BME280;35529;44.342;25.944;2023-07-20T12:49:34;99727.63;;;38.66;52.20
49122;BME280;35529;44.342;25.944;2023-07-20T12:52:00;99735.09;;;38.77;51.81
49122;BME280;35529;44.342;25.944;2023-07-20T12:54:27;99744.06;;;38.95;54.27
49122;BME280;35529;44.342;25.944;2023-07-20T12:56:53;99741.53;;;39.15;51.53
49122;BME280;35529;44.342;25.944;2023-07-20T12:59:19;99734.41;;;39.18;51.89
49122;BME280;35529;44.342;25.944;2023-07-20T13:01:45;99743.25;;;38.98;51.49
49122;BME280;35529;44.342;25.944;2023-07-20T13:04:11;99734.25;;;38.87;51.56
49122;BME280;35529;44.342;25.944;2023-07-20T13:06:37;99728.19;;;38.99;50.37
49122;BME280;35529;44.342;25.944;2023-07-20T13:09:03;99736.34;;;39.21;52.45
49122;BME280;35529;44.342;25.944;2023-07-20T13:11:30;99733.19;;;39.57;51.34
49122;BME280;35529;44.342;25.944;2023-07-20T13:13:56;99720.41;;;40.32;48.93
49122;BME280;35529;44.342;25.944;2023-07-20T13:16:22;99722.28;;;41.17;45.21
49122;BME280;35529;44.342;25.944;2023-07-20T13:18:48;99718.19;;;41.66;44.92
49122;BME280;35529;44.342;25.944;2023-07-20T13:21:15;99727.84;;;41.61;40.71
49122;BME280;35529;44.342;25.944;2023-07-20T13:23:41;99724.41;;;41.74;41.89